createdAt,value
2023-07-27T00:00:08.572Z,9.93
2023-07-27T00:00:40.927Z,9.86
2023-07-27T00:01:12.760Z,9.86
2023-07-27T00:01:44.632Z,9.85
2023-07-27T00:02:16.338Z,9.86
2023-07-27T00:02:48.099Z,9.84
2023-07-27T00:03:19.997Z,9.85
2023-07-27T00:03:52.916Z,9.82
2023-07-27T00:04:25.715Z,9.81
2023-07-27T00:04:57.493Z,9.80
2023-07-27T00:05:29.257Z,9.82
2023-07-27T00:06:01.076Z,9.81
2023-07-27T00:06:33.168Z,9.82
2023-07-27T00:07:05.227Z,9.77
2023-07-27T00:07:37.055Z,9.77
2023-07-27T00:08:08.823Z,9.82
2023-07-27T00:08:40.568Z,9.80
2023-07-27T00:09:12.331Z,9.72
2023-07-27T00:09:44.134Z,9.74
2023-07-27T00:10:15.917Z,9.73
2023-07-27T00:10:47.844Z,9.71
2023-07-27T00:11:19.576Z,9.76
2023-07-27T00:11:51.804Z,9.73
2023-07-27T00:12:23.900Z,9.73
2023-07-27T00:12:56.194Z,9.72
2023-07-27T00:13:28.060Z,9.68
2023-07-27T00:13:59.828Z,9.70
2023-07-27T00:14:31.657Z,9.66
2023-07-27T00:15:03.730Z,9.64
2023-07-27T00:15:35.686Z,9.59
2023-07-27T00:16:07.434Z,9.55
2023-07-27T00:16:39.193Z,9.57
2023-07-27T00:17:11.091Z,9.58
2023-07-27T00:17:42.969Z,9.49
2023-07-27T00:18:14.851Z,9.54
2023-07-27T00:18:46.660Z,9.54
2023-07-27T00:19:18.353Z,9.55
2023-07-27T00:19:50.118Z,9.55
2023-07-27T00:20:22.005Z,9.53
2023-07-27T00:20:53.741Z,9.50
2023-07-27T00:21:25.546Z,9.51
2023-07-27T00:21:57.400Z,9.53
2023-07-27T00:22:29.197Z,9.48
2023-07-27T00:23:00.916Z,9.50
2023-07-27T00:23:32.795Z,9.53
2023-07-27T00:24:05.129Z,9.49
2023-07-27T00:24:36.984Z,9.50
2023-07-27T00:25:09.065Z,9.50
2023-07-27T00:25:40.895Z,9.45
2023-07-27T00:26:12.632Z,9.49
2023-07-27T00:26:44.445Z,9.50
2023-07-27T00:27:16.172Z,9.49
2023-07-27T00:27:47.976Z,9.46
2023-07-27T00:28:19.782Z,9.49
2023-07-27T00:28:52.576Z,9.50
2023-07-27T00:29:24.416Z,9.50
2023-07-27T00:29:56.171Z,9.49
2023-07-27T00:30:27.987Z,9.46
2023-07-27T00:30:59.766Z,9.45
2023-07-27T00:31:31.673Z,9.46
2023-07-27T00:32:03.584Z,9.44
2023-07-27T00:32:35.322Z,9.47
2023-07-27T00:33:07.774Z,9.47
2023-07-27T00:33:39.511Z,9.43
2023-07-27T00:34:11.307Z,9.45
2023-07-27T00:34:43.128Z,9.40
2023-07-27T00:35:14.948Z,9.41
2023-07-27T00:35:54.942Z,9.42
2023-07-27T00:36:26.968Z,9.38
2023-07-27T00:36:58.673Z,9.41
2023-07-27T00:37:30.414Z,9.37
2023-07-27T00:38:02.326Z,9.33
2023-07-27T00:38:34.152Z,9.34
2023-07-27T00:39:05.941Z,9.35
2023-07-27T00:39:37.862Z,9.33
2023-07-27T00:40:10.059Z,9.32
2023-07-27T00:40:47.587Z,9.36
2023-07-27T00:41:19.765Z,9.38
2023-07-27T00:41:53.754Z,9.33
2023-07-27T00:42:26.194Z,9.36
2023-07-27T00:42:57.990Z,9.31
2023-07-27T00:43:29.817Z,9.31
2023-07-27T00:44:01.743Z,9.32
2023-07-27T00:44:33.654Z,9.33
2023-07-27T00:45:05.908Z,9.24
2023-07-27T00:45:37.775Z,9.19
2023-07-27T00:46:12.797Z,9.23
2023-07-27T00:46:45.314Z,9.22
2023-07-27T00:47:17.409Z,9.20
2023-07-27T00:47:49.590Z,9.19
2023-07-27T00:48:22.290Z,9.18
2023-07-27T00:48:54.144Z,9.23
2023-07-27T00:49:26.507Z,9.24
2023-07-27T00:49:58.219Z,9.26
2023-07-27T00:50:30.199Z,9.24
2023-07-27T00:51:02.460Z,9.19
2023-07-27T00:51:39.463Z,9.16
2023-07-27T00:52:12.312Z,9.18
2023-07-27T00:52:44.126Z,9.17
2023-07-27T00:53:16.199Z,9.11
2023-07-27T00:53:48.469Z,9.14
2023-07-27T00:54:20.427Z,9.13
2023-07-27T00:54:56.113Z,9.13
2023-07-27T00:55:27.963Z,9.14
2023-07-27T00:56:01.274Z,9.14
2023-07-27T00:56:34.687Z,9.15
2023-07-27T00:57:07.693Z,9.15
2023-07-27T00:57:39.903Z,9.14
2023-07-27T00:58:13.611Z,9.13
2023-07-27T00:58:45.885Z,9.14
2023-07-27T00:59:17.720Z,9.10
2023-07-27T00:59:50.740Z,9.11
2023-07-27T01:00:23.182Z,9.15
2023-07-27T01:00:55.066Z,9.10
2023-07-27T01:01:28.280Z,9.10
2023-07-27T01:02:00.380Z,9.11
2023-07-27T01:02:32.187Z,9.11
2023-07-27T01:03:05.123Z,9.11
2023-07-27T01:03:38.217Z,9.09
2023-07-27T01:04:10.327Z,9.11
2023-07-27T01:04:42.241Z,9.10
2023-07-27T01:05:13.993Z,9.08
2023-07-27T01:05:46.740Z,9.04
2023-07-27T01:06:18.573Z,9.03
2023-07-27T01:06:50.621Z,9.07
2023-07-27T01:07:22.363Z,9.05
2023-07-27T01:07:54.121Z,9.04
2023-07-27T01:08:26.177Z,9.00
2023-07-27T01:08:58.314Z,9.04
2023-07-27T01:09:30.728Z,9.04
2023-07-27T01:10:02.958Z,9.01
2023-07-27T01:11:01.619Z,8.90
2023-07-27T01:11:44.608Z,8.87
2023-07-27T01:12:39.390Z,8.85
2023-07-27T01:13:24.192Z,8.89
2023-07-27T01:14:03.856Z,8.85
2023-07-27T01:14:44.263Z,8.84
2023-07-27T01:15:21.199Z,8.83
2023-07-27T01:15:59.361Z,8.84
2023-07-27T01:16:53.243Z,8.85
2023-07-27T01:17:25.961Z,8.87
2023-07-27T01:18:08.535Z,8.85
2023-07-27T01:19:05.954Z,8.83
2023-07-27T01:19:59.008Z,8.87
2023-07-27T01:20:50.741Z,8.87
2023-07-27T01:21:27.755Z,8.88
2023-07-27T01:22:32.639Z,8.85
2023-07-27T01:23:31.214Z,8.85
2023-07-27T01:24:18.787Z,8.80
2023-07-27T01:25:11.924Z,8.82
2023-07-27T01:26:06.660Z,8.80
2023-07-27T01:27:06.974Z,8.81
2023-07-27T01:27:53.012Z,8.84
2023-07-27T01:28:55.402Z,8.81
2023-07-27T01:30:05.917Z,8.78
2023-07-27T01:30:51.462Z,8.78
2023-07-27T01:31:26.346Z,8.77
2023-07-27T01:31:58.423Z,8.78
2023-07-27T01:32:34.908Z,8.76
2023-07-27T01:33:11.586Z,8.75
2023-07-27T01:33:47.583Z,8.77
2023-07-27T01:34:28.241Z,8.76
2023-07-27T01:35:01.808Z,8.68
2023-07-27T01:35:40.965Z,8.72
2023-07-27T01:36:20.260Z,8.77
2023-07-27T01:36:56.479Z,8.77
2023-07-27T01:37:30.512Z,8.76
2023-07-27T01:38:04.241Z,8.75
2023-07-27T01:38:42.574Z,8.76
2023-07-27T01:39:18.427Z,8.74
2023-07-27T01:39:53.346Z,8.75
2023-07-27T01:40:25.725Z,8.73
2023-07-27T01:40:58.353Z,8.69
2023-07-27T01:41:32.550Z,8.61
2023-07-27T01:42:05.905Z,8.69
2023-07-27T01:42:39.004Z,8.71
2023-07-27T01:43:12.622Z,8.74
2023-07-27T01:43:45.192Z,8.76
2023-07-27T01:44:17.945Z,8.74
2023-07-27T01:44:51.544Z,8.73
2023-07-27T01:45:24.217Z,8.74
2023-07-27T01:45:58.788Z,8.64
2023-07-27T01:46:32.428Z,8.62
2023-07-27T01:47:05.556Z,8.66
2023-07-27T01:47:42.331Z,8.69
2023-07-27T01:48:16.748Z,8.70
2023-07-27T01:48:49.395Z,8.70
2023-07-27T01:49:22.758Z,8.73
2023-07-27T01:49:55.324Z,8.72
2023-07-27T01:50:29.043Z,8.70
2023-07-27T01:51:01.554Z,8.69
2023-07-27T01:51:34.895Z,8.68
2023-07-27T01:52:07.604Z,8.64
2023-07-27T01:52:40.135Z,8.64
2023-07-27T01:53:14.360Z,8.61
2023-07-27T01:53:47.006Z,8.61
2023-07-27T01:54:20.232Z,8.65
2023-07-27T01:54:53.092Z,8.64
2023-07-27T01:55:25.666Z,8.64
2023-07-27T01:55:59.663Z,8.61
2023-07-27T01:56:33.312Z,8.65
2023-07-27T01:57:06.894Z,8.65
2023-07-27T01:57:39.420Z,8.61
2023-07-27T01:58:11.477Z,8.61
2023-07-27T01:58:45.298Z,8.59
2023-07-27T01:59:18.335Z,8.58
2023-07-27T01:59:51.743Z,8.56
2023-07-27T02:00:24.421Z,8.58
2023-07-27T02:00:56.894Z,8.61
2023-07-27T02:01:31.025Z,8.53
2023-07-27T02:02:03.296Z,8.48
2023-07-27T02:02:36.779Z,8.50
2023-07-27T02:03:10.612Z,8.48
2023-07-27T02:03:43.215Z,8.48
2023-07-27T02:04:18.555Z,8.42
2023-07-27T02:04:52.184Z,8.44
2023-07-27T02:05:26.216Z,8.45
2023-07-27T02:05:58.732Z,8.48
2023-07-27T02:06:31.468Z,8.49
2023-07-27T02:07:03.718Z,8.47
2023-07-27T02:07:36.777Z,8.51
2023-07-27T02:08:08.742Z,8.53
2023-07-27T02:08:40.839Z,8.54
2023-07-27T02:09:12.669Z,8.56
2023-07-27T02:09:44.797Z,8.58
2023-07-27T02:10:19.014Z,8.56
2023-07-27T02:11:01.103Z,8.52
2023-07-27T02:11:33.813Z,8.56
2023-07-27T02:12:26.118Z,8.54
2023-07-27T02:13:05.719Z,8.56
2023-07-27T02:13:48.552Z,8.53
2023-07-27T02:14:32.279Z,8.53
2023-07-27T02:15:28.183Z,8.50
2023-07-27T02:16:13.232Z,8.49
2023-07-27T02:16:58.279Z,8.47
2023-07-27T02:17:38.237Z,8.49
2023-07-27T02:18:19.683Z,8.45
2023-07-27T02:18:53.141Z,8.43
2023-07-27T02:19:30.607Z,8.47
2023-07-27T02:20:07.538Z,8.52
2023-07-27T02:20:40.029Z,8.52
2023-07-27T02:21:13.186Z,8.51
2023-07-27T02:21:47.759Z,8.52
2023-07-27T02:22:20.902Z,8.47
2023-07-27T02:22:54.510Z,8.42
2023-07-27T02:23:28.135Z,8.44
2023-07-27T02:24:00.828Z,8.45
2023-07-27T02:24:34.386Z,8.45
2023-07-27T02:25:07.520Z,8.43
2023-07-27T02:25:39.466Z,8.44
2023-07-27T02:26:11.483Z,8.47
2023-07-27T02:26:43.618Z,8.44
2023-07-27T02:27:15.402Z,8.47
2023-07-27T02:27:47.331Z,8.44
2023-07-27T02:28:19.741Z,8.45
2023-07-27T02:28:51.572Z,8.45
2023-07-27T02:29:24.082Z,8.40
2023-07-27T02:29:56.071Z,8.41
2023-07-27T02:30:27.954Z,8.38
2023-07-27T02:31:00.366Z,8.40
2023-07-27T02:31:32.228Z,8.42
2023-07-27T02:32:04.321Z,8.41
2023-07-27T02:32:36.166Z,8.44
2023-07-27T02:33:08.028Z,8.50
2023-07-27T02:33:39.954Z,8.43
2023-07-27T02:34:11.851Z,8.44
2023-07-27T02:34:43.698Z,8.44
2023-07-27T02:35:18.353Z,8.48
2023-07-27T02:35:56.436Z,8.40
2023-07-27T02:36:28.793Z,8.44
2023-07-27T02:37:00.636Z,8.44
2023-07-27T02:37:32.369Z,8.48
2023-07-27T02:38:04.095Z,8.49
2023-07-27T02:38:38.396Z,8.42
2023-07-27T02:39:10.215Z,8.40
2023-07-27T02:39:42.850Z,8.40
2023-07-27T02:40:14.672Z,8.42
2023-07-27T02:40:47.839Z,8.41
2023-07-27T02:41:19.769Z,8.39
2023-07-27T02:41:51.988Z,8.40
2023-07-27T02:42:25.758Z,8.44
2023-07-27T02:42:57.570Z,8.36
2023-07-27T02:43:29.358Z,8.40
2023-07-27T02:44:01.722Z,8.44
2023-07-27T02:44:34.927Z,8.39
2023-07-27T02:45:07.031Z,8.45
2023-07-27T02:45:44.070Z,8.44
2023-07-27T02:46:16.059Z,8.44
2023-07-27T02:46:47.883Z,8.47
2023-07-27T02:47:19.781Z,8.48
2023-07-27T02:47:52.326Z,8.45
2023-07-27T02:48:24.211Z,8.51
2023-07-27T02:48:56.758Z,8.56
2023-07-27T02:49:28.734Z,8.56
2023-07-27T02:50:01.586Z,8.50
2023-07-27T02:50:33.784Z,8.52
2023-07-27T02:51:11.249Z,8.54
2023-07-27T02:51:43.077Z,8.53
2023-07-27T02:52:14.852Z,8.58
2023-07-27T02:52:46.863Z,8.59
2023-07-27T02:53:19.275Z,8.60
2023-07-27T02:53:51.847Z,8.62
2023-07-27T02:54:28.176Z,8.62
2023-07-27T02:55:01.770Z,8.65
2023-07-27T02:55:33.901Z,8.67
2023-07-27T02:56:08.381Z,8.68
2023-07-27T02:56:52.697Z,8.70
2023-07-27T02:57:31.025Z,8.74
2023-07-27T02:58:05.230Z,8.73
2023-07-27T02:58:39.833Z,8.73
2023-07-27T02:59:11.681Z,8.73
2023-07-27T02:59:48.818Z,8.73
2023-07-27T03:00:20.747Z,8.72
2023-07-27T03:00:56.429Z,8.76
2023-07-27T03:01:29.345Z,8.72
2023-07-27T03:02:07.049Z,8.67
2023-07-27T03:02:42.861Z,8.70
2023-07-27T03:03:15.023Z,8.69
2023-07-27T03:03:47.114Z,8.71
2023-07-27T03:04:19.213Z,8.78
2023-07-27T03:04:51.115Z,8.81
2023-07-27T03:05:22.847Z,8.83
2023-07-27T03:05:58.725Z,8.82
2023-07-27T03:06:30.925Z,8.80
2023-07-27T03:07:05.806Z,8.82
2023-07-27T03:07:38.635Z,8.83
2023-07-27T03:08:10.564Z,8.77
2023-07-27T03:08:43.827Z,8.67
2023-07-27T03:09:15.787Z,8.69
2023-07-27T03:09:52.295Z,8.69
2023-07-27T03:10:25.292Z,8.73
2023-07-27T03:11:04.584Z,8.70
2023-07-27T03:11:39.304Z,8.65
2023-07-27T03:12:11.219Z,8.70
2023-07-27T03:12:42.970Z,8.65
2023-07-27T03:13:14.904Z,8.69
2023-07-27T03:13:47.032Z,8.66
2023-07-27T03:14:19.166Z,8.69
2023-07-27T03:14:50.890Z,8.68
2023-07-27T03:15:22.645Z,8.58
2023-07-27T03:15:54.851Z,8.62
2023-07-27T03:16:26.873Z,8.60
2023-07-27T03:16:58.822Z,8.61
2023-07-27T03:17:30.660Z,8.56
2023-07-27T03:18:02.587Z,8.60
2023-07-27T03:18:34.889Z,8.61
2023-07-27T03:19:06.715Z,8.63
2023-07-27T03:19:38.434Z,8.64
2023-07-27T03:20:10.824Z,8.55
2023-07-27T03:20:43.283Z,8.54
2023-07-27T03:21:15.251Z,8.60
2023-07-27T03:21:49.455Z,8.62
2023-07-27T03:22:21.349Z,8.61
2023-07-27T03:22:53.139Z,8.58
2023-07-27T03:23:25.452Z,8.55
2023-07-27T03:23:57.254Z,8.55
2023-07-27T03:24:30.078Z,8.52
2023-07-27T03:25:01.885Z,8.47
2023-07-27T03:25:34.827Z,8.50
2023-07-27T03:26:12.910Z,8.50
2023-07-27T03:26:45.039Z,8.48
2023-07-27T03:27:16.829Z,8.51
2023-07-27T03:27:48.652Z,8.49
2023-07-27T03:28:20.713Z,8.45
2023-07-27T03:28:52.536Z,8.44
2023-07-27T03:29:24.901Z,8.46
2023-07-27T03:29:57.072Z,8.52
2023-07-27T03:30:29.013Z,8.50
2023-07-27T03:31:00.842Z,8.48
2023-07-27T03:31:32.625Z,8.47
2023-07-27T03:32:05.103Z,8.48
2023-07-27T03:32:39.232Z,8.44
2023-07-27T03:33:11.076Z,8.49
2023-07-27T03:33:43.158Z,8.49
2023-07-27T03:34:14.885Z,8.48
2023-07-27T03:34:47.058Z,8.46
2023-07-27T03:35:18.880Z,8.47
2023-07-27T03:35:50.675Z,8.44
2023-07-27T03:36:22.741Z,8.45
2023-07-27T03:36:54.829Z,8.45
2023-07-27T03:37:26.593Z,8.42
2023-07-27T03:37:58.732Z,8.44
2023-07-27T03:38:31.480Z,8.44
2023-07-27T03:39:03.369Z,8.40
2023-07-27T03:39:35.447Z,8.42
2023-07-27T03:40:08.099Z,8.42
2023-07-27T03:40:40.991Z,8.36
2023-07-27T03:41:13.941Z,8.38
2023-07-27T03:41:48.777Z,8.36
2023-07-27T03:42:20.557Z,8.41
2023-07-27T03:42:52.541Z,8.40
2023-07-27T03:43:24.836Z,8.38
2023-07-27T03:43:56.720Z,8.39
2023-07-27T03:44:28.525Z,8.41
2023-07-27T03:45:00.307Z,8.36
2023-07-27T03:45:32.426Z,8.37
2023-07-27T03:46:04.255Z,8.38
2023-07-27T03:46:36.433Z,8.39
2023-07-27T03:47:08.356Z,8.41
2023-07-27T03:47:41.130Z,8.36
2023-07-27T03:48:12.873Z,8.39
2023-07-27T03:48:47.588Z,8.43
2023-07-27T03:49:19.342Z,8.47
2023-07-27T03:49:51.162Z,8.39
2023-07-27T03:50:22.929Z,8.32
2023-07-27T03:50:55.555Z,8.32
2023-07-27T03:51:27.505Z,8.36
2023-07-27T03:51:59.278Z,8.43
2023-07-27T03:52:30.976Z,8.38
2023-07-27T03:53:02.755Z,8.44
2023-07-27T03:53:34.566Z,8.32
2023-07-27T03:54:06.338Z,8.39
2023-07-27T03:54:42.791Z,8.35
2023-07-27T03:55:14.719Z,8.34
2023-07-27T03:55:47.017Z,8.38
2023-07-27T03:56:18.753Z,8.40
2023-07-27T03:56:50.516Z,8.36
2023-07-27T03:57:22.272Z,8.31
2023-07-27T03:57:54.083Z,8.34
2023-07-27T03:58:26.009Z,8.32
2023-07-27T03:58:57.843Z,8.37
2023-07-27T03:59:29.661Z,8.41
2023-07-27T04:00:01.613Z,8.45
2023-07-27T04:00:37.036Z,8.37
2023-07-27T04:01:08.953Z,8.35
2023-07-27T04:01:41.111Z,8.39
2023-07-27T04:02:12.996Z,8.41
2023-07-27T04:02:44.843Z,8.46
2023-07-27T04:03:16.680Z,8.48
2023-07-27T04:03:48.571Z,8.45
2023-07-27T04:04:21.148Z,8.39
2023-07-27T04:04:54.859Z,8.48
2023-07-27T04:05:26.938Z,8.41
2023-07-27T04:05:59.320Z,8.51
2023-07-27T04:06:31.550Z,8.52
2023-07-27T04:07:03.717Z,8.42
2023-07-27T04:07:35.416Z,8.48
2023-07-27T04:08:07.204Z,8.42
2023-07-27T04:08:38.968Z,8.45
2023-07-27T04:09:10.685Z,8.47
2023-07-27T04:09:44.458Z,8.52
2023-07-27T04:10:16.416Z,8.47
2023-07-27T04:10:48.156Z,8.50
2023-07-27T04:11:19.931Z,8.55
2023-07-27T04:11:53.014Z,8.64
2023-07-27T04:12:24.850Z,8.67
2023-07-27T04:12:57.514Z,8.68
2023-07-27T04:13:29.344Z,8.65
2023-07-27T04:14:03.646Z,8.63
2023-07-27T04:14:36.383Z,8.61
2023-07-27T04:15:08.846Z,8.61
2023-07-27T04:15:40.993Z,8.65
2023-07-27T04:16:12.755Z,8.70
2023-07-27T04:16:44.608Z,8.71
2023-07-27T04:17:16.370Z,8.68
2023-07-27T04:17:48.254Z,8.68
2023-07-27T04:18:20.190Z,8.65
2023-07-27T04:18:52.201Z,8.69
2023-07-27T04:19:24.323Z,8.66
2023-07-27T04:19:57.254Z,8.71
2023-07-27T04:20:30.735Z,8.74
2023-07-27T04:21:02.670Z,8.78
2023-07-27T04:21:34.436Z,8.75
2023-07-27T04:22:06.217Z,8.72
2023-07-27T04:22:38.015Z,8.77
2023-07-27T04:23:09.819Z,8.74
2023-07-27T04:23:41.692Z,8.80
2023-07-27T04:24:13.536Z,8.77
2023-07-27T04:24:46.490Z,8.83
2023-07-27T04:25:18.719Z,8.85
2023-07-27T04:25:50.520Z,8.82
2023-07-27T04:26:22.320Z,8.76
2023-07-27T04:26:54.161Z,8.74
2023-07-27T04:27:25.889Z,8.80
2023-07-27T04:27:58.040Z,8.85
2023-07-27T04:28:29.778Z,8.94
2023-07-27T04:29:01.500Z,8.95
2023-07-27T04:29:33.299Z,8.92
2023-07-27T04:30:06.111Z,8.94
2023-07-27T04:30:38.065Z,8.89
2023-07-27T04:31:09.915Z,8.87
2023-07-27T04:31:41.718Z,8.89
2023-07-27T04:32:13.656Z,8.97
2023-07-27T04:32:45.657Z,8.95
2023-07-27T04:33:17.458Z,8.98
2023-07-27T04:33:49.294Z,9.06
2023-07-27T04:34:21.166Z,9.05
2023-07-27T04:34:53.034Z,9.06
2023-07-27T04:35:24.782Z,9.02
2023-07-27T04:36:02.513Z,8.93
2023-07-27T04:36:34.756Z,9.01
2023-07-27T04:37:06.706Z,9.15
2023-07-27T04:37:38.844Z,9.15
2023-07-27T04:38:10.788Z,9.15
2023-07-27T04:38:42.562Z,9.14
2023-07-27T04:39:15.564Z,9.19
2023-07-27T04:39:47.618Z,9.25
2023-07-27T04:40:20.340Z,9.22
2023-07-27T04:40:52.548Z,9.31
2023-07-27T04:41:24.784Z,9.37
2023-07-27T04:41:56.753Z,9.42
2023-07-27T04:42:28.559Z,9.42
2023-07-27T04:43:00.317Z,9.48
2023-07-27T04:43:32.100Z,9.44
2023-07-27T04:44:03.932Z,9.49
2023-07-27T04:44:35.679Z,9.59
2023-07-27T04:45:08.307Z,9.55
2023-07-27T04:45:40.070Z,9.59
2023-07-27T04:46:12.151Z,9.59
2023-07-27T04:46:43.953Z,9.72
2023-07-27T04:47:15.783Z,9.79
2023-07-27T04:47:47.699Z,9.87
2023-07-27T04:48:19.639Z,9.86
2023-07-27T04:48:51.446Z,9.86
2023-07-27T04:49:23.710Z,10.03
2023-07-27T04:49:55.753Z,10.14
2023-07-27T04:50:27.500Z,10.03
2023-07-27T04:51:00.010Z,10.19
2023-07-27T04:51:31.894Z,10.25
2023-07-27T04:52:03.849Z,10.28
2023-07-27T04:52:37.046Z,10.09
2023-07-27T04:53:08.872Z,10.29
2023-07-27T04:53:40.608Z,10.27
2023-07-27T04:54:12.461Z,10.33
2023-07-27T04:54:44.246Z,10.54
2023-07-27T04:55:16.105Z,10.59
2023-07-27T04:55:48.201Z,10.78
2023-07-27T04:56:19.956Z,11.06
2023-07-27T04:56:51.851Z,10.92
2023-07-27T04:57:23.566Z,11.24
2023-07-27T04:57:55.431Z,11.35
2023-07-27T04:58:27.402Z,11.34
2023-07-27T04:58:59.248Z,11.43
2023-07-27T04:59:31.456Z,11.41
2023-07-27T05:00:03.619Z,11.49
2023-07-27T05:00:35.580Z,11.86
2023-07-27T05:01:07.357Z,12.08
2023-07-27T05:01:39.123Z,12.35
2023-07-27T05:02:11.019Z,12.50
2023-07-27T05:02:42.777Z,12.26
2023-07-27T05:03:15.162Z,12.13
2023-07-27T05:03:46.960Z,12.21
2023-07-27T05:04:19.299Z,12.16
2023-07-27T05:04:51.838Z,12.37
2023-07-27T05:05:23.607Z,12.18
2023-07-27T05:05:55.512Z,12.27
2023-07-27T05:06:27.295Z,12.22
2023-07-27T05:06:59.060Z,12.35
2023-07-27T05:07:30.933Z,12.37
2023-07-27T05:08:02.804Z,12.25
2023-07-27T05:08:34.630Z,12.07
2023-07-27T05:09:06.785Z,12.11
2023-07-27T05:09:38.545Z,12.05
2023-07-27T05:10:10.392Z,11.90
2023-07-27T05:10:42.427Z,11.87
2023-07-27T05:11:14.281Z,11.94
2023-07-27T05:11:46.022Z,11.86
2023-07-27T05:12:18.038Z,11.82
2023-07-27T05:12:49.817Z,11.84
2023-07-27T05:13:21.596Z,11.98
2023-07-27T05:13:53.463Z,11.83
2023-07-27T05:14:25.244Z,11.94
2023-07-27T05:15:01.387Z,11.65
2023-07-27T05:15:33.678Z,11.52
2023-07-27T05:16:05.832Z,11.49
2023-07-27T05:16:39.745Z,11.55
2023-07-27T05:17:11.522Z,11.51
2023-07-27T05:17:43.298Z,11.41
2023-07-27T05:18:15.929Z,11.42
2023-07-27T05:18:47.708Z,11.31
2023-07-27T05:19:19.514Z,11.42
2023-07-27T05:19:51.406Z,11.49
2023-07-27T05:20:23.191Z,11.52
2023-07-27T05:20:55.782Z,11.41
2023-07-27T05:21:27.640Z,11.28
2023-07-27T05:21:59.432Z,11.24
2023-07-27T05:22:31.297Z,11.33
2023-07-27T05:23:03.149Z,11.38
2023-07-27T05:23:34.874Z,11.40
2023-07-27T05:24:06.717Z,11.25
2023-07-27T05:24:39.921Z,11.15
2023-07-27T05:25:11.860Z,11.21
2023-07-27T05:25:43.750Z,11.24
2023-07-27T05:26:15.473Z,11.29
2023-07-27T05:26:47.487Z,11.25
2023-07-27T05:27:19.417Z,11.32
2023-07-27T05:27:51.207Z,11.28
2023-07-27T05:28:23.029Z,11.12
2023-07-27T05:28:57.759Z,11.19
2023-07-27T05:29:31.297Z,11.24
2023-07-27T05:30:04.153Z,11.36
2023-07-27T05:30:35.890Z,11.24
2023-07-27T05:31:08.790Z,11.28
2023-07-27T05:31:41.488Z,11.35
2023-07-27T05:32:13.304Z,11.25
2023-07-27T05:32:45.761Z,11.32
2023-07-27T05:33:18.437Z,11.46
2023-07-27T05:33:50.272Z,11.47
2023-07-27T05:34:22.358Z,11.35
2023-07-27T05:34:55.497Z,11.44
2023-07-27T05:35:27.369Z,11.52
2023-07-27T05:35:59.140Z,11.53
2023-07-27T05:36:31.269Z,11.67
2023-07-27T05:37:03.588Z,11.70
2023-07-27T05:37:35.436Z,11.68
2023-07-27T05:38:07.175Z,11.80
2023-07-27T05:38:38.935Z,11.64
2023-07-27T05:39:10.669Z,11.56
2023-07-27T05:39:43.128Z,11.66
2023-07-27T05:40:17.071Z,11.65
2023-07-27T05:40:50.123Z,11.68
2023-07-27T05:41:21.872Z,11.69
2023-07-27T05:41:53.870Z,11.62
2023-07-27T05:42:27.082Z,11.77
2023-07-27T05:42:59.525Z,11.77
2023-07-27T05:43:31.351Z,11.80
2023-07-27T05:44:03.851Z,11.78
2023-07-27T05:44:36.370Z,11.87
2023-07-27T05:45:08.724Z,11.97
2023-07-27T05:45:40.885Z,11.97
2023-07-27T05:46:12.735Z,11.91
2023-07-27T05:46:44.495Z,11.80
2023-07-27T05:47:16.338Z,11.81
2023-07-27T05:47:48.541Z,11.80
2023-07-27T05:48:20.420Z,11.81
2023-07-27T05:48:52.277Z,11.78
2023-07-27T05:49:24.120Z,11.52
2023-07-27T05:49:56.780Z,11.69
2023-07-27T05:50:28.600Z,11.71
2023-07-27T05:51:00.397Z,11.71
2023-07-27T05:51:32.145Z,11.82
2023-07-27T05:52:05.315Z,11.86
2023-07-27T05:52:37.525Z,11.88
2023-07-27T05:53:09.335Z,11.94
2023-07-27T05:53:41.223Z,11.96
2023-07-27T05:54:13.401Z,12.01
2023-07-27T05:54:45.133Z,12.11
2023-07-27T05:55:16.881Z,11.88
2023-07-27T05:55:48.754Z,11.93
2023-07-27T05:56:20.616Z,11.85
2023-07-27T05:56:53.363Z,11.82
2023-07-27T05:57:25.321Z,11.86
2023-07-27T05:58:01.733Z,11.99
2023-07-27T05:58:38.725Z,11.90
2023-07-27T05:59:10.458Z,11.91
2023-07-27T05:59:46.319Z,11.92
2023-07-27T06:00:24.262Z,11.91
2023-07-27T06:01:04.674Z,11.80
2023-07-27T06:01:37.153Z,11.80
2023-07-27T06:02:09.697Z,11.91
2023-07-27T06:02:41.732Z,11.96
2023-07-27T06:03:13.626Z,11.92
2023-07-27T06:04:01.802Z,11.89
2023-07-27T06:04:37.431Z,12.08
2023-07-27T06:05:09.894Z,12.06
2023-07-27T06:05:45.322Z,12.13
2023-07-27T06:06:17.487Z,12.02
2023-07-27T06:06:49.611Z,11.96
2023-07-27T06:07:21.347Z,11.94
2023-07-27T06:07:54.596Z,12.21
2023-07-27T06:08:26.704Z,12.21
2023-07-27T06:08:58.488Z,12.12
2023-07-27T06:09:30.602Z,12.25
2023-07-27T06:10:02.490Z,12.26
2023-07-27T06:10:34.224Z,12.38
2023-07-27T06:11:11.089Z,12.38
2023-07-27T06:11:47.164Z,12.26
2023-07-27T06:12:19.970Z,12.40
2023-07-27T06:12:51.798Z,12.43
2023-07-27T06:13:25.375Z,12.40
2023-07-27T06:13:57.206Z,12.34
2023-07-27T06:14:30.083Z,12.33
2023-07-27T06:15:01.885Z,12.58
2023-07-27T06:15:33.707Z,12.53
2023-07-27T06:16:05.774Z,12.63
2023-07-27T06:16:38.082Z,12.62
2023-07-27T06:17:09.882Z,12.49
2023-07-27T06:17:41.640Z,12.55
2023-07-27T06:18:13.632Z,12.51
2023-07-27T06:18:46.086Z,12.56
2023-07-27T06:19:18.226Z,12.61
2023-07-27T06:19:51.466Z,12.72
2023-07-27T06:20:23.234Z,12.73
2023-07-27T06:20:55.439Z,12.61
2023-07-27T06:21:27.229Z,12.66
2023-07-27T06:21:59.071Z,12.65
2023-07-27T06:22:32.362Z,12.51
2023-07-27T06:23:05.492Z,12.45
2023-07-27T06:23:37.371Z,12.44
2023-07-27T06:24:09.372Z,12.57
2023-07-27T06:24:41.442Z,12.70
2023-07-27T06:25:13.301Z,12.83
2023-07-27T06:25:45.950Z,12.84
2023-07-27T06:26:17.927Z,12.88
2023-07-27T06:26:49.659Z,12.78
2023-07-27T06:27:21.469Z,12.82
2023-07-27T06:27:53.241Z,13.00
2023-07-27T06:28:24.992Z,13.11
2023-07-27T06:28:57.101Z,13.02
2023-07-27T06:29:29.382Z,12.85
2023-07-27T06:30:02.075Z,12.88
2023-07-27T06:30:37.166Z,13.15
2023-07-27T06:31:08.947Z,13.12
2023-07-27T06:31:40.896Z,13.21
2023-07-27T06:32:13.049Z,13.14
2023-07-27T06:32:45.730Z,13.24
2023-07-27T06:33:18.207Z,13.34
2023-07-27T06:33:50.026Z,13.38
2023-07-27T06:34:21.814Z,13.17
2023-07-27T06:34:53.631Z,13.30
2023-07-27T06:35:25.413Z,13.44
2023-07-27T06:35:57.679Z,13.39
2023-07-27T06:36:29.837Z,13.29
2023-07-27T06:37:02.930Z,13.23
2023-07-27T06:37:34.643Z,13.08
2023-07-27T06:38:06.697Z,13.31
2023-07-27T06:38:40.139Z,13.28
2023-07-27T06:39:12.973Z,13.41
2023-07-27T06:39:44.728Z,13.22
2023-07-27T06:40:16.480Z,13.25
2023-07-27T06:40:48.213Z,13.44
2023-07-27T06:41:25.736Z,13.61
2023-07-27T06:41:57.794Z,13.75
2023-07-27T06:42:35.152Z,13.52
2023-07-27T06:43:08.198Z,13.41
2023-07-27T06:43:39.968Z,13.46
2023-07-27T06:44:12.341Z,13.29
2023-07-27T06:44:44.581Z,13.34
2023-07-27T06:45:16.526Z,13.48
2023-07-27T06:45:48.430Z,13.61
2023-07-27T06:46:21.649Z,13.37
2023-07-27T06:46:54.566Z,13.32
2023-07-27T06:47:29.533Z,13.58
2023-07-27T06:48:01.632Z,13.46
2023-07-27T06:48:33.525Z,13.55
2023-07-27T06:49:07.050Z,13.47
2023-07-27T06:49:38.856Z,13.49
2023-07-27T06:50:10.987Z,13.43
2023-07-27T06:50:43.058Z,13.67
2023-07-27T06:51:16.546Z,13.51
2023-07-27T06:51:49.767Z,13.48
2023-07-27T06:52:21.627Z,13.64
2023-07-27T06:52:53.474Z,13.67
2023-07-27T06:53:25.780Z,13.93
2023-07-27T06:53:58.732Z,13.96
2023-07-27T06:54:31.626Z,13.96
2023-07-27T06:55:03.758Z,13.93
2023-07-27T06:55:36.474Z,13.98
2023-07-27T06:56:08.349Z,14.02
2023-07-27T06:56:40.815Z,14.17
2023-07-27T06:57:13.038Z,14.21
2023-07-27T06:57:46.045Z,13.96
2023-07-27T06:58:17.855Z,13.97
2023-07-27T06:58:50.582Z,13.89
2023-07-27T06:59:23.386Z,13.84
2023-07-27T06:59:55.649Z,14.12
2023-07-27T07:00:28.236Z,14.09
2023-07-27T07:01:00.142Z,13.98
2023-07-27T07:01:32.052Z,14.05
2023-07-27T07:02:06.196Z,14.02
2023-07-27T07:02:39.671Z,14.13
2023-07-27T07:03:11.687Z,14.28
2023-07-27T07:03:43.571Z,14.21
2023-07-27T07:04:16.332Z,14.24
2023-07-27T07:04:48.483Z,14.16
2023-07-27T07:05:20.411Z,14.34
2023-07-27T07:05:55.041Z,14.54
2023-07-27T07:06:26.781Z,14.34
2023-07-27T07:06:59.023Z,14.56
2023-07-27T07:07:30.994Z,14.86
2023-07-27T07:08:04.260Z,14.94
2023-07-27T07:08:36.044Z,14.79
2023-07-27T07:09:07.790Z,14.82
2023-07-27T07:09:39.650Z,14.89
2023-07-27T07:10:11.649Z,14.64
2023-07-27T07:10:43.449Z,14.52
2023-07-27T07:11:15.222Z,14.74
2023-07-27T07:11:47.058Z,14.96
2023-07-27T07:12:18.991Z,14.82
2023-07-27T07:12:50.741Z,14.91
2023-07-27T07:13:22.839Z,14.95
2023-07-27T07:13:54.554Z,14.86
2023-07-27T07:14:26.313Z,15.27
2023-07-27T07:14:58.097Z,15.00
2023-07-27T07:15:29.942Z,14.82
2023-07-27T07:16:01.732Z,14.91
2023-07-27T07:16:33.780Z,15.06
2023-07-27T07:17:06.152Z,15.46
2023-07-27T07:17:39.546Z,15.50
2023-07-27T07:18:11.561Z,15.26